sensor_id;sensor_type;location;lat;lon;timestamp;P1;durP1;ratioP1;P2;durP2;ratioP2
56363;SDS011;42261;52.094;4.326;2022-10-16T00:01:44;5.05;;;0.90;;
56363;SDS011;42261;52.094;4.326;2022-10-16T00:04:29;2.40;;;1.00;;
56363;SDS011;42261;52.094;4.326;2022-10-16T00:07:13;5.38;;;1.05;;
56363;SDS011;42261;52.094;4.326;2022-10-16T00:09:57;3.35;;;1.00;;
56363;SDS011;42261;52.094;4.326;2022-10-16T00:12:41;1.05;;;0.57;;
56363;SDS011;42261;52.094;4.326;2022-10-16T00:15:25;1.35;;;0.60;;
56363;SDS011;42261;52.094;4.326;2022-10-16T00:18:10;1.45;;;0.70;;
56363;SDS011;42261;52.094;4.326;2022-10-16T00:20:54;1.77;;;0.70;;
56363;SDS011;42261;52.094;4.326;2022-10-16T00:24:02;6.13;;;1.30;;
56363;SDS011;42261;52.094;4.326;2022-10-16T00:26:49;1.08;;;0.50;;
56363;SDS011;42261;52.094;4.326;2022-10-16T00:29:33;3.60;;;0.70;;
56363;SDS011;42261;52.094;4.326;2022-10-16T00:32:18;3.33;;;0.50;;
56363;SDS011;42261;52.094;4.326;2022-10-16T00:35:05;1.20;;;0.70;;
56363;SDS011;42261;52.094;4.326;2022-10-16T00:37:50;2.22;;;0.43;;
56363;SDS011;42261;52.094;4.326;2022-10-16T00:40:34;2.80;;;0.50;;
56363;SDS011;42261;52.094;4.326;2022-10-16T00:43:35;3.47;;;0.90;;
56363;SDS011;42261;52.094;4.326;2022-10-16T00:46:25;0.40;;;0.40;;
56363;SDS011;42261;52.094;4.326;2022-10-16T00:49:14;1.67;;;0.43;;
56363;SDS011;42261;52.094;4.326;2022-10-16T00:51:59;2.17;;;0.60;;
56363;SDS011;42261;52.094;4.326;2022-10-16T00:54:43;1.90;;;0.73;;
56363;SDS011;42261;52.094;4.326;2022-10-16T00:57:30;2.25;;;0.30;;
56363;SDS011;42261;52.094;4.326;2022-10-16T01:00:16;1.83;;;0.88;;
56363;SDS011;42261;52.094;4.326;2022-10-16T01:12:01;3.38;;;0.52;;
56363;SDS011;42261;52.094;4.326;2022-10-16T01:20:33;2.15;;;0.65;;
56363;SDS011;42261;52.094;4.326;2022-10-16T01:29:21;2.97;;;0.60;;
56363;SDS011;42261;52.094;4.326;2022-10-16T01:35:29;1.85;;;0.70;;
56363;SDS011;42261;52.094;4.326;2022-10-16T01:38:19;1.80;;;0.60;;
56363;SDS011;42261;52.094;4.326;2022-10-16T01:41:11;1.77;;;0.43;;
56363;SDS011;42261;52.094;4.326;2022-10-16T01:44:06;1.08;;;0.50;;
56363;SDS011;42261;52.094;4.326;2022-10-16T01:46:53;3.90;;;0.70;;
56363;SDS011;42261;52.094;4.326;2022-10-16T01:49:39;4.13;;;0.77;;
56363;SDS011;42261;52.094;4.326;2022-10-16T01:52:25;2.83;;;0.47;;
56363;SDS011;42261;52.094;4.326;2022-10-16T01:55:11;3.20;;;0.75;;
56363;SDS011;42261;52.094;4.326;2022-10-16T01:57:57;4.85;;;0.70;;
56363;SDS011;42261;52.094;4.326;2022-10-16T02:00:44;2.10;;;0.50;;
56363;SDS011;42261;52.094;4.326;2022-10-16T02:03:29;1.88;;;0.40;;
56363;SDS011;42261;52.094;4.326;2022-10-16T02:06:16;1.02;;;0.63;;
56363;SDS011;42261;52.094;4.326;2022-10-16T02:09:00;1.40;;;0.50;;
56363;SDS011;42261;52.094;4.326;2022-10-16T02:11:44;1.70;;;0.98;;
56363;SDS011;42261;52.094;4.326;2022-10-16T02:14:29;3.22;;;0.73;;
56363;SDS011;42261;52.094;4.326;2022-10-16T02:17:14;2.55;;;0.80;;
56363;SDS011;42261;52.094;4.326;2022-10-16T02:19:59;1.30;;;0.65;;
56363;SDS011;42261;52.094;4.326;2022-10-16T02:22:45;4.45;;;0.95;;
56363;SDS011;42261;52.094;4.326;2022-10-16T02:25:31;1.25;;;0.82;;
56363;SDS011;42261;52.094;4.326;2022-10-16T02:28:19;1.77;;;0.87;;
56363;SDS011;42261;52.094;4.326;2022-10-16T02:31:08;2.15;;;0.80;;
56363;SDS011;42261;52.094;4.326;2022-10-16T02:33:56;3.20;;;0.98;;
56363;SDS011;42261;52.094;4.326;2022-10-16T02:36:42;2.83;;;1.02;;
56363;SDS011;42261;52.094;4.326;2022-10-16T02:39:28;1.98;;;0.90;;
56363;SDS011;42261;52.094;4.326;2022-10-16T02:42:12;3.47;;;1.10;;
56363;SDS011;42261;52.094;4.326;2022-10-16T02:44:56;1.30;;;0.80;;
56363;SDS011;42261;52.094;4.326;2022-10-16T02:47:41;3.08;;;1.00;;
56363;SDS011;42261;52.094;4.326;2022-10-16T02:50:25;5.15;;;1.00;;
56363;SDS011;42261;52.094;4.326;2022-10-16T02:53:10;2.03;;;0.77;;
56363;SDS011;42261;52.094;4.326;2022-10-16T02:55:53;2.90;;;1.10;;
56363;SDS011;42261;52.094;4.326;2022-10-16T02:58:38;3.22;;;0.82;;
56363;SDS011;42261;52.094;4.326;2022-10-16T03:01:22;1.88;;;0.90;;
56363;SDS011;42261;52.094;4.326;2022-10-16T03:04:06;2.45;;;0.85;;
56363;SDS011;42261;52.094;4.326;2022-10-16T03:06:50;3.30;;;0.82;;
56363;SDS011;42261;52.094;4.326;2022-10-16T03:09:34;1.80;;;0.90;;
56363;SDS011;42261;52.094;4.326;2022-10-16T03:12:19;2.08;;;0.85;;
56363;SDS011;42261;52.094;4.326;2022-10-16T03:15:03;1.63;;;0.88;;
56363;SDS011;42261;52.094;4.326;2022-10-16T03:17:47;2.25;;;0.75;;
56363;SDS011;42261;52.094;4.326;2022-10-16T03:20:31;0.85;;;0.60;;
56363;SDS011;42261;52.094;4.326;2022-10-16T03:23:15;6.68;;;1.00;;
56363;SDS011;42261;52.094;4.326;2022-10-16T03:25:59;4.38;;;0.70;;
56363;SDS011;42261;52.094;4.326;2022-10-16T03:28:44;1.45;;;0.70;;
56363;SDS011;42261;52.094;4.326;2022-10-16T03:31:29;1.85;;;0.60;;
56363;SDS011;42261;52.094;4.326;2022-10-16T03:34:13;1.10;;;0.65;;
56363;SDS011;42261;52.094;4.326;2022-10-16T03:36:57;1.63;;;0.75;;
56363;SDS011;42261;52.094;4.326;2022-10-16T03:39:41;9.70;;;1.20;;
56363;SDS011;42261;52.094;4.326;2022-10-16T03:42:25;3.50;;;0.80;;
56363;SDS011;42261;52.094;4.326;2022-10-16T03:45:10;1.67;;;0.50;;
56363;SDS011;42261;52.094;4.326;2022-10-16T03:47:56;2.65;;;0.80;;
56363;SDS011;42261;52.094;4.326;2022-10-16T03:50:41;5.07;;;0.80;;
56363;SDS011;42261;52.094;4.326;2022-10-16T03:53:25;2.08;;;0.50;;
56363;SDS011;42261;52.094;4.326;2022-10-16T03:56:09;4.65;;;0.45;;
56363;SDS011;42261;52.094;4.326;2022-10-16T03:58:54;5.55;;;0.70;;
56363;SDS011;42261;52.094;4.326;2022-10-16T04:01:39;1.52;;;0.75;;
56363;SDS011;42261;52.094;4.326;2022-10-16T04:04:23;2.08;;;0.77;;
56363;SDS011;42261;52.094;4.326;2022-10-16T04:07:08;4.35;;;0.68;;
56363;SDS011;42261;52.094;4.326;2022-10-16T04:09:52;2.55;;;0.52;;
56363;SDS011;42261;52.094;4.326;2022-10-16T04:12:37;1.88;;;0.65;;
56363;SDS011;42261;52.094;4.326;2022-10-16T04:15:21;2.17;;;0.70;;
56363;SDS011;42261;52.094;4.326;2022-10-16T04:18:06;2.33;;;0.50;;
56363;SDS011;42261;52.094;4.326;2022-10-16T04:20:51;2.30;;;0.60;;
56363;SDS011;42261;52.094;4.326;2022-10-16T04:23:35;3.28;;;0.60;;
56363;SDS011;42261;52.094;4.326;2022-10-16T04:26:19;5.18;;;0.50;;
56363;SDS011;42261;52.094;4.326;2022-10-16T04:29:04;1.70;;;0.60;;
56363;SDS011;42261;52.094;4.326;2022-10-16T04:31:48;3.03;;;0.63;;
56363;SDS011;42261;52.094;4.326;2022-10-16T04:34:32;1.10;;;0.38;;
56363;SDS011;42261;52.094;4.326;2022-10-16T04:37:17;2.53;;;0.70;;
56363;SDS011;42261;52.094;4.326;2022-10-16T04:40:01;2.15;;;0.68;;
56363;SDS011;42261;52.094;4.326;2022-10-16T04:42:46;3.85;;;0.77;;
56363;SDS011;42261;52.094;4.326;2022-10-16T04:45:30;1.73;;;0.70;;
56363;SDS011;42261;52.094;4.326;2022-10-16T04:48:14;3.28;;;0.70;;
56363;SDS011;42261;52.094;4.326;2022-10-16T04:50:59;2.35;;;0.77;;
56363;SDS011;42261;52.094;4.326;2022-10-16T04:53:43;4.03;;;1.27;;
56363;SDS011;42261;52.094;4.326;2022-10-16T04:56:27;1.42;;;0.60;;
56363;SDS011;42261;52.094;4.326;2022-10-16T04:59:11;4.15;;;0.85;;
56363;SDS011;42261;52.094;4.326;2022-10-16T05:01:56;5.35;;;0.75;;
56363;SDS011;42261;52.094;4.326;2022-10-16T05:04:40;2.35;;;0.70;;
56363;SDS011;42261;52.094;4.326;2022-10-16T05:07:24;2.28;;;0.75;;
56363;SDS011;42261;52.094;4.326;2022-10-16T05:10:09;5.40;;;1.13;;
56363;SDS011;42261;52.094;4.326;2022-10-16T05:12:53;3.75;;;0.90;;
56363;SDS011;42261;52.094;4.326;2022-10-16T05:15:38;4.15;;;0.77;;
56363;SDS011;42261;52.094;4.326;2022-10-16T05:18:22;2.38;;;0.80;;
56363;SDS011;42261;52.094;4.326;2022-10-16T05:21:06;3.60;;;1.23;;
56363;SDS011;42261;52.094;4.326;2022-10-16T05:23:52;1.15;;;0.70;;
56363;SDS011;42261;52.094;4.326;2022-10-16T05:26:37;7.30;;;1.50;;
56363;SDS011;42261;52.094;4.326;2022-10-16T05:29:21;3.85;;;1.00;;
56363;SDS011;42261;52.094;4.326;2022-10-16T05:32:06;3.13;;;1.10;;
56363;SDS011;42261;52.094;4.326;2022-10-16T05:34:50;3.63;;;1.10;;
56363;SDS011;42261;52.094;4.326;2022-10-16T05:37:34;4.53;;;1.30;;
56363;SDS011;42261;52.094;4.326;2022-10-16T05:40:18;3.30;;;1.50;;
56363;SDS011;42261;52.094;4.326;2022-10-16T05:43:02;5.22;;;1.27;;
56363;SDS011;42261;52.094;4.326;2022-10-16T05:48:44;2.13;;;1.23;;
56363;SDS011;42261;52.094;4.326;2022-10-16T05:51:28;5.80;;;1.00;;
56363;SDS011;42261;52.094;4.326;2022-10-16T05:54:13;2.28;;;1.30;;
56363;SDS011;42261;52.094;4.326;2022-10-16T05:56:57;6.43;;;1.38;;
56363;SDS011;42261;52.094;4.326;2022-10-16T05:59:41;1.77;;;1.08;;
56363;SDS011;42261;52.094;4.326;2022-10-16T06:02:25;3.40;;;1.23;;
56363;SDS011;42261;52.094;4.326;2022-10-16T06:05:10;2.60;;;1.20;;
56363;SDS011;42261;52.094;4.326;2022-10-16T06:07:54;3.90;;;1.30;;
56363;SDS011;42261;52.094;4.326;2022-10-16T06:10:38;3.83;;;1.27;;
56363;SDS011;42261;52.094;4.326;2022-10-16T06:13:22;3.17;;;1.80;;
56363;SDS011;42261;52.094;4.326;2022-10-16T06:16:06;5.90;;;1.20;;
56363;SDS011;42261;52.094;4.326;2022-10-16T06:18:51;8.57;;;1.25;;
56363;SDS011;42261;52.094;4.326;2022-10-16T06:21:36;4.78;;;1.17;;
56363;SDS011;42261;52.094;4.326;2022-10-16T06:24:20;5.03;;;1.20;;
56363;SDS011;42261;52.094;4.326;2022-10-16T06:27:05;2.55;;;0.90;;
56363;SDS011;42261;52.094;4.326;2022-10-16T06:29:49;4.57;;;0.90;;
56363;SDS011;42261;52.094;4.326;2022-10-16T06:32:33;3.53;;;1.08;;
56363;SDS011;42261;52.094;4.326;2022-10-16T06:35:18;5.25;;;0.80;;
56363;SDS011;42261;52.094;4.326;2022-10-16T06:38:01;3.92;;;0.88;;
56363;SDS011;42261;52.094;4.326;2022-10-16T06:40:46;7.57;;;1.10;;
56363;SDS011;42261;52.094;4.326;2022-10-16T06:43:30;3.88;;;0.85;;
56363;SDS011;42261;52.094;4.326;2022-10-16T06:46:20;10.35;;;1.08;;
56363;SDS011;42261;52.094;4.326;2022-10-16T06:49:06;3.05;;;0.88;;
56363;SDS011;42261;52.094;4.326;2022-10-16T06:51:51;5.15;;;1.05;;
56363;SDS011;42261;52.094;4.326;2022-10-16T06:54:34;5.57;;;1.20;;
56363;SDS011;42261;52.094;4.326;2022-10-16T06:57:18;3.90;;;0.80;;
56363;SDS011;42261;52.094;4.326;2022-10-16T07:00:03;9.25;;;1.83;;
56363;SDS011;42261;52.094;4.326;2022-10-16T07:02:47;4.25;;;0.90;;
56363;SDS011;42261;52.094;4.326;2022-10-16T07:05:31;3.88;;;1.15;;
56363;SDS011;42261;52.094;4.326;2022-10-16T07:08:15;7.05;;;1.10;;
56363;SDS011;42261;52.094;4.326;2022-10-16T07:11:00;4.68;;;1.40;;
56363;SDS011;42261;52.094;4.326;2022-10-16T07:13:45;9.07;;;1.23;;
56363;SDS011;42261;52.094;4.326;2022-10-16T07:16:31;2.60;;;1.10;;
56363;SDS011;42261;52.094;4.326;2022-10-16T07:19:16;6.68;;;1.20;;
56363;SDS011;42261;52.094;4.326;2022-10-16T07:22:02;4.90;;;1.10;;
56363;SDS011;42261;52.094;4.326;2022-10-16T07:24:46;5.68;;;1.30;;
56363;SDS011;42261;52.094;4.326;2022-10-16T07:27:31;3.67;;;1.17;;
56363;SDS011;42261;52.094;4.326;2022-10-16T07:30:15;8.82;;;1.67;;
56363;SDS011;42261;52.094;4.326;2022-10-16T07:32:59;3.10;;;1.20;;
56363;SDS011;42261;52.094;4.326;2022-10-16T07:35:51;3.88;;;1.38;;
56363;SDS011;42261;52.094;4.326;2022-10-16T07:38:35;4.10;;;1.40;;
56363;SDS011;42261;52.094;4.326;2022-10-16T07:41:20;2.22;;;1.02;;
56363;SDS011;42261;52.094;4.326;2022-10-16T07:44:04;5.32;;;1.40;;
56363;SDS011;42261;52.094;4.326;2022-10-16T07:46:48;5.57;;;1.20;;
56363;SDS011;42261;52.094;4.326;2022-10-16T07:49:33;5.07;;;1.50;;
56363;SDS011;42261;52.094;4.326;2022-10-16T07:52:17;6.28;;;1.10;;
56363;SDS011;42261;52.094;4.326;2022-10-16T07:55:01;7.25;;;1.17;;
56363;SDS011;42261;52.094;4.326;2022-10-16T07:57:45;2.72;;;1.20;;
56363;SDS011;42261;52.094;4.326;2022-10-16T08:00:29;5.13;;;1.10;;
56363;SDS011;42261;52.094;4.326;2022-10-16T08:03:13;7.45;;;1.52;;
56363;SDS011;42261;52.094;4.326;2022-10-16T08:05:58;5.78;;;1.10;;
56363;SDS011;42261;52.094;4.326;2022-10-16T08:08:42;3.95;;;1.10;;
56363;SDS011;42261;52.094;4.326;2022-10-16T08:11:27;3.03;;;1.10;;
56363;SDS011;42261;52.094;4.326;2022-10-16T08:14:12;3.85;;;1.10;;
56363;SDS011;42261;52.094;4.326;2022-10-16T08:16:56;4.05;;;1.10;;
56363;SDS011;42261;52.094;4.326;2022-10-16T08:19:43;5.03;;;1.38;;
56363;SDS011;42261;52.094;4.326;2022-10-16T08:22:28;7.75;;;1.10;;
56363;SDS011;42261;52.094;4.326;2022-10-16T08:25:12;9.00;;;1.05;;
56363;SDS011;42261;52.094;4.326;2022-10-16T08:27:57;2.33;;;1.00;;
56363;SDS011;42261;52.094;4.326;2022-10-16T08:30:41;4.05;;;1.38;;
56363;SDS011;42261;52.094;4.326;2022-10-16T08:33:26;5.80;;;1.20;;
56363;SDS011;42261;52.094;4.326;2022-10-16T08:36:10;7.10;;;1.20;;
56363;SDS011;42261;52.094;4.326;2022-10-16T08:38:55;7.68;;;1.00;;
56363;SDS011;42261;52.094;4.326;2022-10-16T08:50:32;3.67;;;1.08;;
56363;SDS011;42261;52.094;4.326;2022-10-16T08:53:28;3.63;;;1.10;;
56363;SDS011;42261;52.094;4.326;2022-10-16T08:56:14;13.27;;;1.65;;
56363;SDS011;42261;52.094;4.326;2022-10-16T08:58:59;6.13;;;1.58;;
56363;SDS011;42261;52.094;4.326;2022-10-16T09:01:45;7.00;;;1.00;;
56363;SDS011;42261;52.094;4.326;2022-10-16T09:08:03;7.10;;;1.52;;
56363;SDS011;42261;52.094;4.326;2022-10-16T09:13:45;10.93;;;1.58;;
56363;SDS011;42261;52.094;4.326;2022-10-16T09:16:39;15.65;;;1.52;;
56363;SDS011;42261;52.094;4.326;2022-10-16T09:19:51;13.60;;;1.70;;
56363;SDS011;42261;52.094;4.326;2022-10-16T09:23:16;8.60;;;1.30;;
56363;SDS011;42261;52.094;4.326;2022-10-16T09:26:03;7.25;;;2.33;;
56363;SDS011;42261;52.094;4.326;2022-10-16T09:28:48;9.20;;;1.48;;
56363;SDS011;42261;52.094;4.326;2022-10-16T09:31:36;7.05;;;1.35;;
56363;SDS011;42261;52.094;4.326;2022-10-16T09:37:17;8.05;;;1.38;;
56363;SDS011;42261;52.094;4.326;2022-10-16T09:40:02;6.72;;;1.40;;
56363;SDS011;42261;52.094;4.326;2022-10-16T09:42:46;4.43;;;1.95;;
56363;SDS011;42261;52.094;4.326;2022-10-16T09:45:30;8.00;;;1.20;;
56363;SDS011;42261;52.094;4.326;2022-10-16T09:48:17;11.68;;;1.25;;
56363;SDS011;42261;52.094;4.326;2022-10-16T09:51:04;15.07;;;1.50;;
56363;SDS011;42261;52.094;4.326;2022-10-16T09:53:55;3.45;;;1.00;;
56363;SDS011;42261;52.094;4.326;2022-10-16T09:56:45;8.80;;;1.10;;
56363;SDS011;42261;52.094;4.326;2022-10-16T09:59:32;7.90;;;1.25;;
56363;SDS011;42261;52.094;4.326;2022-10-16T10:02:18;8.30;;;1.20;;
56363;SDS011;42261;52.094;4.326;2022-10-16T10:05:04;7.13;;;1.50;;
56363;SDS011;42261;52.094;4.326;2022-10-16T10:07:56;11.38;;;1.77;;
56363;SDS011;42261;52.094;4.326;2022-10-16T10:10:42;7.85;;;1.10;;
56363;SDS011;42261;52.094;4.326;2022-10-16T10:13:27;12.90;;;1.30;;
56363;SDS011;42261;52.094;4.326;2022-10-16T10:16:12;13.52;;;1.58;;
56363;SDS011;42261;52.094;4.326;2022-10-16T10:18:59;8.57;;;1.23;;
56363;SDS011;42261;52.094;4.326;2022-10-16T10:21:44;11.50;;;1.30;;
56363;SDS011;42261;52.094;4.326;2022-10-16T10:24:29;5.05;;;1.20;;
56363;SDS011;42261;52.094;4.326;2022-10-16T10:27:14;5.85;;;0.90;;
56363;SDS011;42261;52.094;4.326;2022-10-16T10:30:04;10.55;;;1.50;;
56363;SDS011;42261;52.094;4.326;2022-10-16T10:33:21;4.47;;;1.08;;
56363;SDS011;42261;52.094;4.326;2022-10-16T10:39:27;9.50;;;1.20;;
56363;SDS011;42261;52.094;4.326;2022-10-16T10:45:27;9.48;;;1.48;;
56363;SDS011;42261;52.094;4.326;2022-10-16T11:06:49;5.47;;;1.48;;
56363;SDS011;42261;52.094;4.326;2022-10-16T11:09:36;7.80;;;1.00;;
56363;SDS011;42261;52.094;4.326;2022-10-16T11:12:37;8.45;;;1.50;;
56363;SDS011;42261;52.094;4.326;2022-10-16T11:15:28;5.00;;;0.85;;
56363;SDS011;42261;52.094;4.326;2022-10-16T11:18:32;4.22;;;1.00;;
56363;SDS011;42261;52.094;4.326;2022-10-16T11:21:22;7.47;;;0.80;;
56363;SDS011;42261;52.094;4.326;2022-10-16T11:24:15;3.53;;;1.08;;
56363;SDS011;42261;52.094;4.326;2022-10-16T11:27:18;7.63;;;1.60;;
56363;SDS011;42261;52.094;4.326;2022-10-16T11:30:05;6.13;;;0.95;;
56363;SDS011;42261;52.094;4.326;2022-10-16T11:33:04;5.28;;;0.90;;
56363;SDS011;42261;52.094;4.326;2022-10-16T11:42:20;5.93;;;0.75;;
56363;SDS011;42261;52.094;4.326;2022-10-16T11:47:54;3.53;;;0.93;;
56363;SDS011;42261;52.094;4.326;2022-10-16T11:50:53;9.40;;;1.00;;
56363;SDS011;42261;52.094;4.326;2022-10-16T11:53:44;4.28;;;1.20;;
56363;SDS011;42261;52.094;4.326;2022-10-16T11:56:32;9.25;;;1.20;;
56363;SDS011;42261;52.094;4.326;2022-10-16T11:59:42;3.85;;;0.70;;
56363;SDS011;42261;52.094;4.326;2022-10-16T12:08:20;9.65;;;0.98;;
56363;SDS011;42261;52.094;4.326;2022-10-16T12:16:56;4.60;;;0.70;;
56363;SDS011;42261;52.094;4.326;2022-10-16T12:19:44;8.52;;;1.15;;
56363;SDS011;42261;52.094;4.326;2022-10-16T12:23:03;7.32;;;1.10;;
56363;SDS011;42261;52.094;4.326;2022-10-16T12:25:53;11.63;;;1.77;;
56363;SDS011;42261;52.094;4.326;2022-10-16T12:28:39;3.13;;;0.77;;
56363;SDS011;42261;52.094;4.326;2022-10-16T12:31:25;4.18;;;0.80;;
56363;SDS011;42261;52.094;4.326;2022-10-16T12:34:28;6.00;;;1.65;;
56363;SDS011;42261;52.094;4.326;2022-10-16T12:40:12;5.30;;;0.98;;
56363;SDS011;42261;52.094;4.326;2022-10-16T12:42:58;8.13;;;1.08;;
56363;SDS011;42261;52.094;4.326;2022-10-16T12:45:42;8.15;;;0.85;;
56363;SDS011;42261;52.094;4.326;2022-10-16T12:48:27;3.83;;;1.00;;
56363;SDS011;42261;52.094;4.326;2022-10-16T12:51:57;5.32;;;1.10;;
56363;SDS011;42261;52.094;4.326;2022-10-16T12:54:36;8.30;;;0.98;;
56363;SDS011;42261;52.094;4.326;2022-10-16T13:03:34;6.50;;;1.20;;
56363;SDS011;42261;52.094;4.326;2022-10-16T13:09:28;11.70;;;1.40;;
56363;SDS011;42261;52.094;4.326;2022-10-16T13:15:19;4.65;;;1.35;;
56363;SDS011;42261;52.094;4.326;2022-10-16T13:27:33;5.13;;;0.80;;
56363;SDS011;42261;52.094;4.326;2022-10-16T13:30:29;4.30;;;0.93;;
56363;SDS011;42261;52.094;4.326;2022-10-16T13:33:20;4.55;;;1.10;;
56363;SDS011;42261;52.094;4.326;2022-10-16T13:36:24;10.00;;;1.05;;
56363;SDS011;42261;52.094;4.326;2022-10-16T13:39:29;5.05;;;0.93;;
56363;SDS011;42261;52.094;4.326;2022-10-16T13:42:15;7.20;;;1.08;;
56363;SDS011;42261;52.094;4.326;2022-10-16T13:45:03;6.75;;;0.95;;
56363;SDS011;42261;52.094;4.326;2022-10-16T13:47:48;8.00;;;1.40;;
56363;SDS011;42261;52.094;4.326;2022-10-16T13:50:32;5.13;;;1.15;;
56363;SDS011;42261;52.094;4.326;2022-10-16T13:53:16;3.80;;;0.70;;
56363;SDS011;42261;52.094;4.326;2022-10-16T13:56:02;9.95;;;2.05;;
56363;SDS011;42261;52.094;4.326;2022-10-16T14:01:56;10.18;;;1.23;;
56363;SDS011;42261;52.094;4.326;2022-10-16T14:04:43;7.43;;;1.20;;
56363;SDS011;42261;52.094;4.326;2022-10-16T14:07:29;5.68;;;1.00;;
56363;SDS011;42261;52.094;4.326;2022-10-16T14:10:34;9.70;;;1.00;;
56363;SDS011;42261;52.094;4.326;2022-10-16T14:13:23;9.00;;;1.50;;
56363;SDS011;42261;52.094;4.326;2022-10-16T14:16:22;4.25;;;1.42;;
56363;SDS011;42261;52.094;4.326;2022-10-16T14:19:26;7.00;;;1.27;;
56363;SDS011;42261;52.094;4.326;2022-10-16T14:22:57;4.03;;;1.10;;
56363;SDS011;42261;52.094;4.326;2022-10-16T14:25:27;7.97;;;1.23;;
56363;SDS011;42261;52.094;4.326;2022-10-16T14:28:15;7.88;;;1.10;;
56363;SDS011;42261;52.094;4.326;2022-10-16T14:31:02;8.50;;;1.30;;
56363;SDS011;42261;52.094;4.326;2022-10-16T14:34:33;7.93;;;1.80;;
56363;SDS011;42261;52.094;4.326;2022-10-16T14:37:25;6.95;;;1.08;;
56363;SDS011;42261;52.094;4.326;2022-10-16T14:40:13;7.28;;;1.48;;
56363;SDS011;42261;52.094;4.326;2022-10-16T14:42:59;3.63;;;0.98;;
56363;SDS011;42261;52.094;4.326;2022-10-16T14:45:50;8.65;;;1.17;;
56363;SDS011;42261;52.094;4.326;2022-10-16T14:48:36;7.50;;;1.23;;
56363;SDS011;42261;52.094;4.326;2022-10-16T14:51:27;5.85;;;1.20;;
56363;SDS011;42261;52.094;4.326;2022-10-16T14:54:12;6.80;;;1.00;;
56363;SDS011;42261;52.094;4.326;2022-10-16T14:56:57;6.25;;;0.90;;
56363;SDS011;42261;52.094;4.326;2022-10-16T14:59:47;9.43;;;1.65;;
56363;SDS011;42261;52.094;4.326;2022-10-16T15:02:33;5.13;;;1.13;;
56363;SDS011;42261;52.094;4.326;2022-10-16T15:05:24;8.43;;;1.60;;
56363;SDS011;42261;52.094;4.326;2022-10-16T15:08:09;4.28;;;1.05;;
56363;SDS011;42261;52.094;4.326;2022-10-16T15:10:54;5.55;;;1.40;;
56363;SDS011;42261;52.094;4.326;2022-10-16T15:13:39;4.53;;;1.10;;
56363;SDS011;42261;52.094;4.326;2022-10-16T15:16:23;9.30;;;1.60;;
56363;SDS011;42261;52.094;4.326;2022-10-16T15:19:07;7.22;;;1.25;;
56363;SDS011;42261;52.094;4.326;2022-10-16T15:21:51;2.70;;;1.10;;
56363;SDS011;42261;52.094;4.326;2022-10-16T15:24:36;5.55;;;1.30;;
56363;SDS011;42261;52.094;4.326;2022-10-16T15:27:20;7.35;;;1.10;;
56363;SDS011;42261;52.094;4.326;2022-10-16T15:30:04;5.93;;;1.02;;
56363;SDS011;42261;52.094;4.326;2022-10-16T15:32:49;8.38;;;1.70;;
56363;SDS011;42261;52.094;4.326;2022-10-16T15:35:33;11.10;;;2.95;;
56363;SDS011;42261;52.094;4.326;2022-10-16T15:38:18;5.75;;;1.42;;
56363;SDS011;42261;52.094;4.326;2022-10-16T15:41:04;9.50;;;1.35;;
56363;SDS011;42261;52.094;4.326;2022-10-16T15:43:49;11.82;;;1.95;;
56363;SDS011;42261;52.094;4.326;2022-10-16T15:46:34;8.32;;;1.70;;
56363;SDS011;42261;52.094;4.326;2022-10-16T15:49:18;5.95;;;1.92;;
56363;SDS011;42261;52.094;4.326;2022-10-16T15:52:02;7.95;;;1.85;;
56363;SDS011;42261;52.094;4.326;2022-10-16T15:54:47;4.63;;;1.45;;
56363;SDS011;42261;52.094;4.326;2022-10-16T15:57:31;7.75;;;1.40;;
56363;SDS011;42261;52.094;4.326;2022-10-16T16:00:17;8.93;;;2.10;;
56363;SDS011;42261;52.094;4.326;2022-10-16T16:03:03;7.03;;;2.40;;
56363;SDS011;42261;52.094;4.326;2022-10-16T16:05:47;6.03;;;1.42;;
56363;SDS011;42261;52.094;4.326;2022-10-16T16:08:32;8.73;;;2.20;;
56363;SDS011;42261;52.094;4.326;2022-10-16T16:11:16;8.75;;;2.50;;
56363;SDS011;42261;52.094;4.326;2022-10-16T16:14:01;8.48;;;2.00;;
56363;SDS011;42261;52.094;4.326;2022-10-16T16:16:45;9.35;;;2.40;;
56363;SDS011;42261;52.094;4.326;2022-10-16T16:19:30;8.23;;;3.53;;
56363;SDS011;42261;52.094;4.326;2022-10-16T16:22:15;8.55;;;2.00;;
56363;SDS011;42261;52.094;4.326;2022-10-16T16:24:59;10.45;;;2.78;;
56363;SDS011;42261;52.094;4.326;2022-10-16T16:27:44;10.82;;;2.58;;
56363;SDS011;42261;52.094;4.326;2022-10-16T16:30:29;10.90;;;2.50;;
56363;SDS011;42261;52.094;4.326;2022-10-16T16:33:14;9.45;;;2.67;;
56363;SDS011;42261;52.094;4.326;2022-10-16T16:35:58;8.90;;;3.00;;
56363;SDS011;42261;52.094;4.326;2022-10-16T16:38:44;8.00;;;3.10;;
56363;SDS011;42261;52.094;4.326;2022-10-16T16:41:29;10.23;;;3.90;;
56363;SDS011;42261;52.094;4.326;2022-10-16T16:44:15;8.80;;;3.10;;
56363;SDS011;42261;52.094;4.326;2022-10-16T16:47:00;11.73;;;2.40;;
56363;SDS011;42261;52.094;4.326;2022-10-16T16:49:44;8.48;;;2.28;;
56363;SDS011;42261;52.094;4.326;2022-10-16T16:52:30;9.65;;;2.90;;
56363;SDS011;42261;52.094;4.326;2022-10-16T16:55:14;7.50;;;2.00;;
56363;SDS011;42261;52.094;4.326;2022-10-16T16:57:58;8.20;;;2.17;;
56363;SDS011;42261;52.094;4.326;2022-10-16T17:00:46;11.07;;;2.92;;
56363;SDS011;42261;52.094;4.326;2022-10-16T17:03:31;14.57;;;7.15;;
56363;SDS011;42261;52.094;4.326;2022-10-16T17:06:17;14.70;;;6.43;;
56363;SDS011;42261;52.094;4.326;2022-10-16T17:09:02;11.95;;;5.55;;
56363;SDS011;42261;52.094;4.326;2022-10-16T17:11:48;12.75;;;4.25;;
56363;SDS011;42261;52.094;4.326;2022-10-16T17:14:32;10.57;;;3.20;;
56363;SDS011;42261;52.094;4.326;2022-10-16T17:17:17;10.57;;;4.10;;
56363;SDS011;42261;52.094;4.326;2022-10-16T17:20:02;8.80;;;2.85;;
56363;SDS011;42261;52.094;4.326;2022-10-16T17:22:50;9.50;;;2.53;;
56363;SDS011;42261;52.094;4.326;2022-10-16T17:25:38;12.75;;;2.85;;
56363;SDS011;42261;52.094;4.326;2022-10-16T17:28:22;16.90;;;5.70;;
56363;SDS011;42261;52.094;4.326;2022-10-16T17:31:07;17.98;;;9.32;;
56363;SDS011;42261;52.094;4.326;2022-10-16T17:33:53;14.02;;;7.22;;
56363;SDS011;42261;52.094;4.326;2022-10-16T17:36:37;13.57;;;5.43;;
56363;SDS011;42261;52.094;4.326;2022-10-16T17:39:26;12.10;;;4.05;;
56363;SDS011;42261;52.094;4.326;2022-10-16T17:42:10;8.30;;;3.00;;
56363;SDS011;42261;52.094;4.326;2022-10-16T17:44:54;7.05;;;2.97;;
56363;SDS011;42261;52.094;4.326;2022-10-16T17:47:39;12.48;;;4.05;;
56363;SDS011;42261;52.094;4.326;2022-10-16T17:50:26;8.48;;;3.17;;
56363;SDS011;42261;52.094;4.326;2022-10-16T17:53:13;8.60;;;2.70;;
56363;SDS011;42261;52.094;4.326;2022-10-16T17:56:00;12.00;;;2.50;;
56363;SDS011;42261;52.094;4.326;2022-10-16T17:58:53;7.72;;;2.88;;
56363;SDS011;42261;52.094;4.326;2022-10-16T18:01:38;6.40;;;2.15;;
56363;SDS011;42261;52.094;4.326;2022-10-16T18:04:28;9.43;;;2.85;;
56363;SDS011;42261;52.094;4.326;2022-10-16T18:07:13;7.53;;;2.40;;
56363;SDS011;42261;52.094;4.326;2022-10-16T18:09:59;5.95;;;2.60;;
56363;SDS011;42261;52.094;4.326;2022-10-16T18:12:50;8.77;;;2.75;;
56363;SDS011;42261;52.094;4.326;2022-10-16T18:15:37;11.35;;;3.03;;
56363;SDS011;42261;52.094;4.326;2022-10-16T18:18:21;10.85;;;2.88;;
56363;SDS011;42261;52.094;4.326;2022-10-16T18:21:06;7.50;;;2.70;;
56363;SDS011;42261;52.094;4.326;2022-10-16T18:23:52;10.20;;;3.00;;
56363;SDS011;42261;52.094;4.326;2022-10-16T18:26:37;14.65;;;2.70;;
56363;SDS011;42261;52.094;4.326;2022-10-16T18:29:22;8.38;;;2.65;;
56363;SDS011;42261;52.094;4.326;2022-10-16T18:32:06;9.65;;;2.67;;
56363;SDS011;42261;52.094;4.326;2022-10-16T18:34:50;9.77;;;3.20;;
56363;SDS011;42261;52.094;4.326;2022-10-16T18:37:35;10.25;;;3.35;;
56363;SDS011;42261;52.094;4.326;2022-10-16T18:40:19;15.45;;;5.88;;
56363;SDS011;42261;52.094;4.326;2022-10-16T18:43:04;17.13;;;5.28;;